sensor_id;sensor_type;location;lat;lon;timestamp;P1;durP1;ratioP1;P2;durP2;ratioP2
17390;SDS011;8813;54.444;18.446;2023-12-20T00:02:15;12.70;;;12.30;;
17390;SDS011;8813;54.444;18.446;2023-12-20T00:04:42;14.55;;;14.07;;
17390;SDS011;8813;54.444;18.446;2023-12-20T00:07:09;14.45;;;13.98;;
17390;SDS011;8813;54.444;18.446;2023-12-20T00:09:37;14.15;;;13.75;;
17390;SDS011;8813;54.444;18.446;2023-12-20T00:12:04;14.98;;;14.48;;
17390;SDS011;8813;54.444;18.446;2023-12-20T00:14:33;16.48;;;15.88;;
17390;SDS011;8813;54.444;18.446;2023-12-20T00:17:00;15.18;;;14.68;;
17390;SDS011;8813;54.444;18.446;2023-12-20T00:19:27;15.43;;;14.93;;
17390;SDS011;8813;54.444;18.446;2023-12-20T00:21:54;15.30;;;14.80;;
17390;SDS011;8813;54.444;18.446;2023-12-20T00:24:21;15.30;;;14.80;;
17390;SDS011;8813;54.444;18.446;2023-12-20T00:26:48;14.82;;;14.32;;
17390;SDS011;8813;54.444;18.446;2023-12-20T00:29:15;15.30;;;14.80;;
17390;SDS011;8813;54.444;18.446;2023-12-20T00:31:43;14.35;;;13.95;;
17390;SDS011;8813;54.444;18.446;2023-12-20T00:34:10;14.55;;;14.15;;
17390;SDS011;8813;54.444;18.446;2023-12-20T00:36:37;14.45;;;14.05;;
17390;SDS011;8813;54.444;18.446;2023-12-20T00:39:04;14.43;;;14.02;;
17390;SDS011;8813;54.444;18.446;2023-12-20T00:41:32;13.68;;;13.27;;
17390;SDS011;8813;54.444;18.446;2023-12-20T00:43:59;13.23;;;12.82;;
17390;SDS011;8813;54.444;18.446;2023-12-20T00:46:26;13.52;;;13.13;;
17390;SDS011;8813;54.444;18.446;2023-12-20T00:48:54;14.00;;;13.60;;
17390;SDS011;8813;54.444;18.446;2023-12-20T00:51:21;13.52;;;13.13;;
17390;SDS011;8813;54.444;18.446;2023-12-20T00:53:49;13.88;;;13.48;;
17390;SDS011;8813;54.444;18.446;2023-12-20T00:56:19;13.88;;;13.48;;
17390;SDS011;8813;54.444;18.446;2023-12-20T00:58:46;13.80;;;13.40;;
17390;SDS011;8813;54.444;18.446;2023-12-20T01:01:13;13.32;;;12.93;;
17390;SDS011;8813;54.444;18.446;2023-12-20T01:03:40;13.52;;;13.13;;
17390;SDS011;8813;54.444;18.446;2023-12-20T01:06:09;13.05;;;12.65;;
17390;SDS011;8813;54.444;18.446;2023-12-20T01:08:37;13.55;;;13.15;;
17390;SDS011;8813;54.444;18.446;2023-12-20T01:11:04;14.30;;;13.90;;
17390;SDS011;8813;54.444;18.446;2023-12-20T01:13:31;12.90;;;12.50;;
17390;SDS011;8813;54.444;18.446;2023-12-20T01:15:58;12.88;;;12.48;;
17390;SDS011;8813;54.444;18.446;2023-12-20T01:18:25;13.70;;;13.30;;
17390;SDS011;8813;54.444;18.446;2023-12-20T01:20:52;13.75;;;13.35;;
17390;SDS011;8813;54.444;18.446;2023-12-20T01:23:20;13.38;;;12.98;;
17390;SDS011;8813;54.444;18.446;2023-12-20T01:25:47;13.30;;;12.90;;
17390;SDS011;8813;54.444;18.446;2023-12-20T01:28:15;13.50;;;13.10;;
17390;SDS011;8813;54.444;18.446;2023-12-20T01:30:42;13.10;;;12.70;;
17390;SDS011;8813;54.444;18.446;2023-12-20T01:33:09;15.15;;;14.65;;
17390;SDS011;8813;54.444;18.446;2023-12-20T01:35:36;12.98;;;12.57;;
17390;SDS011;8813;54.444;18.446;2023-12-20T01:38:03;13.52;;;13.13;;
17390;SDS011;8813;54.444;18.446;2023-12-20T01:40:31;13.88;;;13.48;;
17390;SDS011;8813;54.444;18.446;2023-12-20T01:42:59;13.60;;;13.20;;
17390;SDS011;8813;54.444;18.446;2023-12-20T01:45:26;13.35;;;12.95;;
17390;SDS011;8813;54.444;18.446;2023-12-20T01:47:53;13.77;;;13.38;;
17390;SDS011;8813;54.444;18.446;2023-12-20T01:50:21;13.40;;;13.00;;
17390;SDS011;8813;54.444;18.446;2023-12-20T01:52:48;14.10;;;13.70;;
17390;SDS011;8813;54.444;18.446;2023-12-20T01:55:17;13.77;;;13.38;;
17390;SDS011;8813;54.444;18.446;2023-12-20T01:57:46;14.40;;;14.00;;
17390;SDS011;8813;54.444;18.446;2023-12-20T02:00:13;14.13;;;13.73;;
17390;SDS011;8813;54.444;18.446;2023-12-20T02:02:41;14.00;;;13.60;;
17390;SDS011;8813;54.444;18.446;2023-12-20T02:05:10;14.70;;;14.20;;
17390;SDS011;8813;54.444;18.446;2023-12-20T02:07:37;13.90;;;13.50;;
17390;SDS011;8813;54.444;18.446;2023-12-20T02:10:04;14.18;;;13.77;;
17390;SDS011;8813;54.444;18.446;2023-12-20T02:12:32;13.73;;;13.32;;
17390;SDS011;8813;54.444;18.446;2023-12-20T02:15:00;13.50;;;13.00;;
17390;SDS011;8813;54.444;18.446;2023-12-20T02:17:27;12.90;;;12.50;;
17390;SDS011;8813;54.444;18.446;2023-12-20T02:19:54;13.05;;;12.65;;
17390;SDS011;8813;54.444;18.446;2023-12-20T02:22:23;12.25;;;11.95;;
17390;SDS011;8813;54.444;18.446;2023-12-20T02:24:50;12.80;;;12.40;;
17390;SDS011;8813;54.444;18.446;2023-12-20T02:27:17;13.27;;;12.77;;
17390;SDS011;8813;54.444;18.446;2023-12-20T02:29:44;13.35;;;12.95;;
17390;SDS011;8813;54.444;18.446;2023-12-20T02:32:13;12.88;;;12.48;;
17390;SDS011;8813;54.444;18.446;2023-12-20T02:34:40;12.50;;;12.10;;
17390;SDS011;8813;54.444;18.446;2023-12-20T02:37:07;12.82;;;12.43;;
17390;SDS011;8813;54.444;18.446;2023-12-20T02:39:36;12.75;;;12.35;;
17390;SDS011;8813;54.444;18.446;2023-12-20T02:42:03;12.70;;;12.30;;
17390;SDS011;8813;54.444;18.446;2023-12-20T02:44:30;11.65;;;11.25;;
17390;SDS011;8813;54.444;18.446;2023-12-20T02:46:57;12.43;;;11.88;;
17390;SDS011;8813;54.444;18.446;2023-12-20T02:49:24;11.20;;;10.90;;
17390;SDS011;8813;54.444;18.446;2023-12-20T02:51:51;11.15;;;10.85;;
17390;SDS011;8813;54.444;18.446;2023-12-20T02:54:18;11.35;;;11.05;;
17390;SDS011;8813;54.444;18.446;2023-12-20T02:56:46;11.35;;;11.05;;
17390;SDS011;8813;54.444;18.446;2023-12-20T02:59:13;11.10;;;10.80;;
17390;SDS011;8813;54.444;18.446;2023-12-20T03:01:41;11.48;;;11.18;;
17390;SDS011;8813;54.444;18.446;2023-12-20T03:04:09;10.80;;;10.50;;
17390;SDS011;8813;54.444;18.446;2023-12-20T03:06:36;11.20;;;10.80;;
17390;SDS011;8813;54.444;18.446;2023-12-20T03:09:03;12.27;;;11.68;;
17390;SDS011;8813;54.444;18.446;2023-12-20T03:11:30;11.07;;;10.77;;
17390;SDS011;8813;54.444;18.446;2023-12-20T03:13:59;10.13;;;9.82;;
17390;SDS011;8813;54.444;18.446;2023-12-20T03:16:26;10.32;;;10.02;;
17390;SDS011;8813;54.444;18.446;2023-12-20T03:18:53;10.02;;;9.73;;
17390;SDS011;8813;54.444;18.446;2023-12-20T03:21:20;10.70;;;10.20;;
17390;SDS011;8813;54.444;18.446;2023-12-20T03:23:47;9.57;;;9.27;;
17390;SDS011;8813;54.444;18.446;2023-12-20T03:26:14;10.20;;;9.90;;
17390;SDS011;8813;54.444;18.446;2023-12-20T03:28:41;9.52;;;9.32;;
17390;SDS011;8813;54.444;18.446;2023-12-20T03:31:10;11.98;;;11.10;;
17390;SDS011;8813;54.444;18.446;2023-12-20T03:33:37;10.02;;;9.57;;
17390;SDS011;8813;54.444;18.446;2023-12-20T03:36:04;9.40;;;9.20;;
17390;SDS011;8813;54.444;18.446;2023-12-20T03:38:31;9.90;;;9.60;;
17390;SDS011;8813;54.444;18.446;2023-12-20T03:40:59;10.50;;;9.85;;
17390;SDS011;8813;54.444;18.446;2023-12-20T03:43:25;8.63;;;8.43;;
17390;SDS011;8813;54.444;18.446;2023-12-20T03:45:52;8.77;;;8.57;;
17390;SDS011;8813;54.444;18.446;2023-12-20T03:48:21;8.10;;;7.80;;
17390;SDS011;8813;54.444;18.446;2023-12-20T03:50:48;8.57;;;8.38;;
17390;SDS011;8813;54.444;18.446;2023-12-20T03:53:14;8.48;;;8.27;;
17390;SDS011;8813;54.444;18.446;2023-12-20T03:55:41;9.02;;;8.45;;
17390;SDS011;8813;54.444;18.446;2023-12-20T03:58:09;7.70;;;7.40;;
17390;SDS011;8813;54.444;18.446;2023-12-20T04:00:36;8.27;;;7.85;;
17390;SDS011;8813;54.444;18.446;2023-12-20T04:03:03;7.50;;;7.30;;
17390;SDS011;8813;54.444;18.446;2023-12-20T04:05:31;7.60;;;7.40;;
17390;SDS011;8813;54.444;18.446;2023-12-20T04:07:59;8.07;;;7.88;;
17390;SDS011;8813;54.444;18.446;2023-12-20T04:10:27;7.80;;;7.60;;
17390;SDS011;8813;54.444;18.446;2023-12-20T04:12:54;7.53;;;7.32;;
17390;SDS011;8813;54.444;18.446;2023-12-20T04:15:21;7.60;;;7.25;;
17390;SDS011;8813;54.444;18.446;2023-12-20T04:17:48;7.30;;;7.10;;
17390;SDS011;8813;54.444;18.446;2023-12-20T04:20:15;6.70;;;6.50;;
17390;SDS011;8813;54.444;18.446;2023-12-20T04:22:43;6.80;;;6.60;;
17390;SDS011;8813;54.444;18.446;2023-12-20T04:25:10;6.90;;;6.70;;
17390;SDS011;8813;54.444;18.446;2023-12-20T04:27:37;6.75;;;6.60;;
17390;SDS011;8813;54.444;18.446;2023-12-20T04:30:05;6.70;;;6.60;;
17390;SDS011;8813;54.444;18.446;2023-12-20T04:32:33;7.63;;;7.40;;
17390;SDS011;8813;54.444;18.446;2023-12-20T04:35:00;7.30;;;7.10;;
17390;SDS011;8813;54.444;18.446;2023-12-20T04:37:27;7.20;;;7.00;;
17390;SDS011;8813;54.444;18.446;2023-12-20T04:39:55;7.25;;;7.05;;
17390;SDS011;8813;54.444;18.446;2023-12-20T04:42:22;7.40;;;7.20;;
17390;SDS011;8813;54.444;18.446;2023-12-20T04:44:49;7.50;;;7.30;;
17390;SDS011;8813;54.444;18.446;2023-12-20T04:47:16;7.10;;;6.90;;
17390;SDS011;8813;54.444;18.446;2023-12-20T04:49:43;7.50;;;7.30;;
17390;SDS011;8813;54.444;18.446;2023-12-20T04:52:11;7.70;;;7.40;;
17390;SDS011;8813;54.444;18.446;2023-12-20T04:54:39;7.57;;;7.38;;
17390;SDS011;8813;54.444;18.446;2023-12-20T04:57:08;7.28;;;7.07;;
17390;SDS011;8813;54.444;18.446;2023-12-20T04:59:36;7.55;;;7.35;;
17390;SDS011;8813;54.444;18.446;2023-12-20T05:02:05;7.20;;;7.00;;
17390;SDS011;8813;54.444;18.446;2023-12-20T05:04:34;6.70;;;6.60;;
17390;SDS011;8813;54.444;18.446;2023-12-20T05:07:01;7.10;;;6.90;;
17390;SDS011;8813;54.444;18.446;2023-12-20T05:09:30;6.57;;;6.38;;
17390;SDS011;8813;54.444;18.446;2023-12-20T05:11:57;6.68;;;6.57;;
17390;SDS011;8813;54.444;18.446;2023-12-20T05:14:25;6.10;;;6.00;;
17390;SDS011;8813;54.444;18.446;2023-12-20T05:16:56;6.20;;;6.10;;
17390;SDS011;8813;54.444;18.446;2023-12-20T05:19:23;5.88;;;5.78;;
17390;SDS011;8813;54.444;18.446;2023-12-20T05:21:51;6.30;;;6.20;;
17390;SDS011;8813;54.444;18.446;2023-12-20T05:24:18;6.03;;;5.93;;
17390;SDS011;8813;54.444;18.446;2023-12-20T05:26:45;6.40;;;6.30;;
17390;SDS011;8813;54.444;18.446;2023-12-20T05:29:12;6.78;;;6.57;;
17390;SDS011;8813;54.444;18.446;2023-12-20T05:31:41;6.65;;;6.55;;
17390;SDS011;8813;54.444;18.446;2023-12-20T05:34:08;6.90;;;6.70;;
17390;SDS011;8813;54.444;18.446;2023-12-20T05:36:35;5.72;;;5.63;;
17390;SDS011;8813;54.444;18.446;2023-12-20T05:39:02;6.65;;;6.45;;
17390;SDS011;8813;54.444;18.446;2023-12-20T05:41:29;6.75;;;5.88;;
17390;SDS011;8813;54.444;18.446;2023-12-20T05:43:56;5.88;;;5.78;;
17390;SDS011;8813;54.444;18.446;2023-12-20T05:46:24;6.25;;;6.13;;
17390;SDS011;8813;54.444;18.446;2023-12-20T05:48:52;6.20;;;6.10;;
17390;SDS011;8813;54.444;18.446;2023-12-20T05:51:19;6.10;;;5.90;;
17390;SDS011;8813;54.444;18.446;2023-12-20T05:53:46;5.30;;;5.20;;
17390;SDS011;8813;54.444;18.446;2023-12-20T05:56:15;5.80;;;5.70;;
17390;SDS011;8813;54.444;18.446;2023-12-20T05:58:42;9.38;;;8.93;;
17390;SDS011;8813;54.444;18.446;2023-12-20T06:01:09;5.53;;;5.43;;
17390;SDS011;8813;54.444;18.446;2023-12-20T06:03:36;5.88;;;5.78;;
17390;SDS011;8813;54.444;18.446;2023-12-20T06:06:06;5.80;;;5.60;;
17390;SDS011;8813;54.444;18.446;2023-12-20T06:08:33;4.80;;;4.70;;
17390;SDS011;8813;54.444;18.446;2023-12-20T06:11:00;5.10;;;5.00;;
17390;SDS011;8813;54.444;18.446;2023-12-20T06:13:27;5.10;;;5.00;;
17390;SDS011;8813;54.444;18.446;2023-12-20T06:15:54;5.20;;;5.10;;
17390;SDS011;8813;54.444;18.446;2023-12-20T06:18:21;5.50;;;5.40;;
17390;SDS011;8813;54.444;18.446;2023-12-20T06:20:49;4.88;;;4.78;;
17390;SDS011;8813;54.444;18.446;2023-12-20T06:23:18;5.00;;;4.90;;
17390;SDS011;8813;54.444;18.446;2023-12-20T06:25:45;5.20;;;5.10;;
17390;SDS011;8813;54.444;18.446;2023-12-20T06:28:12;5.22;;;5.13;;
17390;SDS011;8813;54.444;18.446;2023-12-20T06:30:40;5.40;;;5.30;;
17390;SDS011;8813;54.444;18.446;2023-12-20T06:33:07;5.30;;;5.20;;
17390;SDS011;8813;54.444;18.446;2023-12-20T06:35:35;5.20;;;5.10;;
17390;SDS011;8813;54.444;18.446;2023-12-20T06:38:02;5.80;;;5.70;;
17390;SDS011;8813;54.444;18.446;2023-12-20T06:40:30;6.20;;;6.10;;
17390;SDS011;8813;54.444;18.446;2023-12-20T06:42:57;5.10;;;5.00;;
17390;SDS011;8813;54.444;18.446;2023-12-20T06:45:24;5.20;;;5.10;;
17390;SDS011;8813;54.444;18.446;2023-12-20T06:47:51;5.20;;;5.10;;
17390;SDS011;8813;54.444;18.446;2023-12-20T06:50:20;5.90;;;5.80;;
17390;SDS011;8813;54.444;18.446;2023-12-20T06:52:47;6.72;;;6.25;;
17390;SDS011;8813;54.444;18.446;2023-12-20T06:55:14;5.57;;;5.47;;
17390;SDS011;8813;54.444;18.446;2023-12-20T06:57:44;6.40;;;6.28;;
17390;SDS011;8813;54.444;18.446;2023-12-20T07:00:11;6.32;;;6.22;;
17390;SDS011;8813;54.444;18.446;2023-12-20T07:02:38;6.20;;;6.10;;
17390;SDS011;8813;54.444;18.446;2023-12-20T07:05:05;6.38;;;6.18;;
17390;SDS011;8813;54.444;18.446;2023-12-20T07:07:33;5.70;;;5.60;;
17390;SDS011;8813;54.444;18.446;2023-12-20T07:10:00;5.80;;;5.70;;
17390;SDS011;8813;54.444;18.446;2023-12-20T07:12:27;11.00;;;6.07;;
17390;SDS011;8813;54.444;18.446;2023-12-20T07:14:56;5.50;;;5.40;;
17390;SDS011;8813;54.444;18.446;2023-12-20T07:17:22;7.43;;;7.03;;
17390;SDS011;8813;54.444;18.446;2023-12-20T07:19:49;6.10;;;6.00;;
17390;SDS011;8813;54.444;18.446;2023-12-20T07:22:17;5.63;;;5.43;;
17390;SDS011;8813;54.444;18.446;2023-12-20T07:24:47;8.30;;;7.70;;
17390;SDS011;8813;54.444;18.446;2023-12-20T07:27:15;5.67;;;5.57;;
17390;SDS011;8813;54.444;18.446;2023-12-20T07:29:42;6.35;;;6.00;;
17390;SDS011;8813;54.444;18.446;2023-12-20T07:32:10;12.23;;;6.28;;
17390;SDS011;8813;54.444;18.446;2023-12-20T07:34:37;6.73;;;6.43;;
17390;SDS011;8813;54.444;18.446;2023-12-20T07:37:04;6.47;;;6.07;;
17390;SDS011;8813;54.444;18.446;2023-12-20T07:39:31;5.20;;;5.10;;
17390;SDS011;8813;54.444;18.446;2023-12-20T07:41:58;5.97;;;5.77;;
17390;SDS011;8813;54.444;18.446;2023-12-20T07:44:25;6.17;;;5.97;;
17390;SDS011;8813;54.444;18.446;2023-12-20T07:46:52;5.50;;;5.38;;
17390;SDS011;8813;54.444;18.446;2023-12-20T07:49:20;5.53;;;5.43;;
17390;SDS011;8813;54.444;18.446;2023-12-20T07:51:47;5.90;;;5.80;;
17390;SDS011;8813;54.444;18.446;2023-12-20T07:54:15;5.30;;;5.20;;
17390;SDS011;8813;54.444;18.446;2023-12-20T07:56:42;5.53;;;5.43;;
17390;SDS011;8813;54.444;18.446;2023-12-20T07:59:10;5.70;;;5.60;;
17390;SDS011;8813;54.444;18.446;2023-12-20T08:01:37;5.07;;;4.97;;
17390;SDS011;8813;54.444;18.446;2023-12-20T08:04:04;5.83;;;5.63;;
17390;SDS011;8813;54.444;18.446;2023-12-20T08:06:32;5.93;;;5.60;;
17390;SDS011;8813;54.444;18.446;2023-12-20T08:08:59;4.95;;;4.82;;
17390;SDS011;8813;54.444;18.446;2023-12-20T08:11:26;5.83;;;5.63;;
17390;SDS011;8813;54.444;18.446;2023-12-20T08:13:53;4.70;;;4.60;;
17390;SDS011;8813;54.444;18.446;2023-12-20T08:16:20;9.33;;;6.70;;
17390;SDS011;8813;54.444;18.446;2023-12-20T08:18:47;5.03;;;4.93;;
17390;SDS011;8813;54.444;18.446;2023-12-20T08:21:14;4.03;;;3.93;;
17390;SDS011;8813;54.444;18.446;2023-12-20T08:23:43;4.60;;;4.30;;
17390;SDS011;8813;54.444;18.446;2023-12-20T08:26:10;3.90;;;3.80;;
17390;SDS011;8813;54.444;18.446;2023-12-20T08:28:37;4.75;;;4.57;;
17390;SDS011;8813;54.444;18.446;2023-12-20T08:31:04;4.95;;;4.63;;
17390;SDS011;8813;54.444;18.446;2023-12-20T08:33:31;5.05;;;4.40;;
17390;SDS011;8813;54.444;18.446;2023-12-20T08:35:58;3.70;;;3.60;;
17390;SDS011;8813;54.444;18.446;2023-12-20T08:38:25;5.13;;;4.10;;
17390;SDS011;8813;54.444;18.446;2023-12-20T08:40:53;3.40;;;3.33;;
17390;SDS011;8813;54.444;18.446;2023-12-20T08:43:20;4.22;;;3.92;;
17390;SDS011;8813;54.444;18.446;2023-12-20T08:45:47;3.20;;;3.20;;
17390;SDS011;8813;54.444;18.446;2023-12-20T08:48:14;3.10;;;3.10;;
17390;SDS011;8813;54.444;18.446;2023-12-20T08:50:41;3.25;;;3.20;;
17390;SDS011;8813;54.444;18.446;2023-12-20T08:53:08;3.72;;;3.53;;
17390;SDS011;8813;54.444;18.446;2023-12-20T08:55:36;3.97;;;3.60;;
17390;SDS011;8813;54.444;18.446;2023-12-20T08:58:04;3.63;;;3.53;;
17390;SDS011;8813;54.444;18.446;2023-12-20T09:00:33;3.50;;;3.30;;
17390;SDS011;8813;54.444;18.446;2023-12-20T09:03:00;3.35;;;3.35;;
17390;SDS011;8813;54.444;18.446;2023-12-20T09:05:27;3.75;;;3.65;;
17390;SDS011;8813;54.444;18.446;2023-12-20T09:07:55;4.70;;;4.60;;
17390;SDS011;8813;54.444;18.446;2023-12-20T09:10:22;3.30;;;3.30;;
17390;SDS011;8813;54.444;18.446;2023-12-20T09:12:49;4.07;;;3.88;;
17390;SDS011;8813;54.444;18.446;2023-12-20T09:15:18;3.30;;;3.30;;
17390;SDS011;8813;54.444;18.446;2023-12-20T09:17:45;3.92;;;3.80;;
17390;SDS011;8813;54.444;18.446;2023-12-20T09:20:12;4.78;;;4.38;;
17390;SDS011;8813;54.444;18.446;2023-12-20T09:22:39;3.40;;;3.30;;
17390;SDS011;8813;54.444;18.446;2023-12-20T09:25:07;3.92;;;3.83;;
17390;SDS011;8813;54.444;18.446;2023-12-20T09:27:35;4.40;;;4.00;;
17390;SDS011;8813;54.444;18.446;2023-12-20T09:30:03;6.43;;;4.95;;
17390;SDS011;8813;54.444;18.446;2023-12-20T09:32:33;4.10;;;4.00;;
17390;SDS011;8813;54.444;18.446;2023-12-20T09:35:00;4.25;;;3.95;;
17390;SDS011;8813;54.444;18.446;2023-12-20T09:37:27;3.35;;;3.30;;
17390;SDS011;8813;54.444;18.446;2023-12-20T09:39:54;3.55;;;3.42;;
17390;SDS011;8813;54.444;18.446;2023-12-20T09:42:24;3.10;;;3.10;;
17390;SDS011;8813;54.444;18.446;2023-12-20T09:44:53;3.92;;;3.63;;
17390;SDS011;8813;54.444;18.446;2023-12-20T09:47:20;3.47;;;3.25;;
17390;SDS011;8813;54.444;18.446;2023-12-20T09:49:51;3.65;;;3.55;;
17390;SDS011;8813;54.444;18.446;2023-12-20T09:52:18;3.30;;;3.20;;
17390;SDS011;8813;54.444;18.446;2023-12-20T09:54:47;5.00;;;3.63;;
17390;SDS011;8813;54.444;18.446;2023-12-20T09:57:16;3.95;;;3.65;;
17390;SDS011;8813;54.444;18.446;2023-12-20T09:59:43;2.70;;;2.70;;
17390;SDS011;8813;54.444;18.446;2023-12-20T10:02:12;3.45;;;3.35;;
17390;SDS011;8813;54.444;18.446;2023-12-20T10:04:41;3.20;;;3.20;;
17390;SDS011;8813;54.444;18.446;2023-12-20T10:07:15;3.70;;;3.50;;
17390;SDS011;8813;54.444;18.446;2023-12-20T10:09:42;3.10;;;3.10;;
17390;SDS011;8813;54.444;18.446;2023-12-20T10:12:09;3.55;;;3.25;;
17390;SDS011;8813;54.444;18.446;2023-12-20T10:14:37;3.53;;;3.38;;
17390;SDS011;8813;54.444;18.446;2023-12-20T10:17:05;2.92;;;2.83;;
17390;SDS011;8813;54.444;18.446;2023-12-20T10:19:33;4.82;;;3.67;;
17390;SDS011;8813;54.444;18.446;2023-12-20T10:22:00;3.63;;;3.53;;
17390;SDS011;8813;54.444;18.446;2023-12-20T10:24:29;3.40;;;3.30;;
17390;SDS011;8813;54.444;18.446;2023-12-20T10:27:03;3.75;;;3.53;;
17390;SDS011;8813;54.444;18.446;2023-12-20T10:29:33;3.85;;;3.63;;
17390;SDS011;8813;54.444;18.446;2023-12-20T10:32:05;3.00;;;2.90;;
17390;SDS011;8813;54.444;18.446;2023-12-20T10:34:48;3.28;;;3.17;;
17390;SDS011;8813;54.444;18.446;2023-12-20T10:37:15;3.08;;;3.08;;
17390;SDS011;8813;54.444;18.446;2023-12-20T10:39:44;3.67;;;3.55;;
17390;SDS011;8813;54.444;18.446;2023-12-20T10:42:16;4.82;;;3.90;;
17390;SDS011;8813;54.444;18.446;2023-12-20T10:44:43;2.80;;;2.80;;
17390;SDS011;8813;54.444;18.446;2023-12-20T10:47:10;3.70;;;3.60;;
17390;SDS011;8813;54.444;18.446;2023-12-20T10:49:38;4.50;;;4.15;;
17390;SDS011;8813;54.444;18.446;2023-12-20T10:52:05;3.30;;;3.20;;
17390;SDS011;8813;54.444;18.446;2023-12-20T10:54:33;3.53;;;3.42;;
17390;SDS011;8813;54.444;18.446;2023-12-20T10:57:01;3.10;;;3.10;;
17390;SDS011;8813;54.444;18.446;2023-12-20T10:59:30;3.92;;;3.72;;
17390;SDS011;8813;54.444;18.446;2023-12-20T11:02:00;4.05;;;3.70;;
17390;SDS011;8813;54.444;18.446;2023-12-20T11:04:31;4.63;;;4.43;;
17390;SDS011;8813;54.444;18.446;2023-12-20T11:07:06;4.45;;;4.22;;
17390;SDS011;8813;54.444;18.446;2023-12-20T11:09:38;4.15;;;3.95;;
17390;SDS011;8813;54.444;18.446;2023-12-20T11:12:10;3.65;;;3.55;;
17390;SDS011;8813;54.444;18.446;2023-12-20T11:14:40;4.25;;;4.03;;
17390;SDS011;8813;54.444;18.446;2023-12-20T11:17:09;5.22;;;4.15;;
17390;SDS011;8813;54.444;18.446;2023-12-20T11:19:38;3.67;;;3.58;;
17390;SDS011;8813;54.444;18.446;2023-12-20T11:22:09;3.47;;;3.33;;
17390;SDS011;8813;54.444;18.446;2023-12-20T11:24:38;3.85;;;3.55;;
17390;SDS011;8813;54.444;18.446;2023-12-20T11:27:13;3.28;;;3.08;;
17390;SDS011;8813;54.444;18.446;2023-12-20T11:29:41;3.35;;;3.25;;
17390;SDS011;8813;54.444;18.446;2023-12-20T11:34:55;4.30;;;4.10;;
17390;SDS011;8813;54.444;18.446;2023-12-20T11:37:25;3.40;;;3.30;;
17390;SDS011;8813;54.444;18.446;2023-12-20T11:39:55;3.00;;;3.00;;
17390;SDS011;8813;54.444;18.446;2023-12-20T11:42:24;13.27;;;3.60;;
17390;SDS011;8813;54.444;18.446;2023-12-20T11:44:51;3.38;;;3.20;;
17390;SDS011;8813;54.444;18.446;2023-12-20T11:47:18;4.15;;;3.85;;
17390;SDS011;8813;54.444;18.446;2023-12-20T11:49:46;3.70;;;3.50;;
17390;SDS011;8813;54.444;18.446;2023-12-20T11:52:14;3.63;;;3.53;;
17390;SDS011;8813;54.444;18.446;2023-12-20T11:54:41;5.10;;;4.90;;
17390;SDS011;8813;54.444;18.446;2023-12-20T11:57:08;4.93;;;4.82;;
17390;SDS011;8813;54.444;18.446;2023-12-20T11:59:37;5.13;;;4.82;;
17390;SDS011;8813;54.444;18.446;2023-12-20T12:02:04;6.35;;;5.78;;
17390;SDS011;8813;54.444;18.446;2023-12-20T12:04:31;4.85;;;4.70;;
17390;SDS011;8813;54.444;18.446;2023-12-20T12:06:58;5.03;;;4.82;;
17390;SDS011;8813;54.444;18.446;2023-12-20T12:09:25;5.80;;;5.47;;
17390;SDS011;8813;54.444;18.446;2023-12-20T12:11:52;6.00;;;5.80;;
17390;SDS011;8813;54.444;18.446;2023-12-20T12:14:19;6.30;;;6.00;;
17390;SDS011;8813;54.444;18.446;2023-12-20T12:16:48;5.80;;;5.60;;
17390;SDS011;8813;54.444;18.446;2023-12-20T12:19:21;5.55;;;5.45;;
17390;SDS011;8813;54.444;18.446;2023-12-20T12:21:48;6.15;;;5.78;;
17390;SDS011;8813;54.444;18.446;2023-12-20T12:24:19;5.32;;;5.22;;
17390;SDS011;8813;54.444;18.446;2023-12-20T12:26:49;4.95;;;4.75;;
17390;SDS011;8813;54.444;18.446;2023-12-20T12:29:17;5.32;;;5.22;;
17390;SDS011;8813;54.444;18.446;2023-12-20T12:31:45;4.95;;;4.85;;
17390;SDS011;8813;54.444;18.446;2023-12-20T12:34:13;5.00;;;4.80;;
17390;SDS011;8813;54.444;18.446;2023-12-20T12:36:41;4.75;;;4.65;;
17390;SDS011;8813;54.444;18.446;2023-12-20T12:39:08;4.90;;;4.80;;
17390;SDS011;8813;54.444;18.446;2023-12-20T12:41:35;4.60;;;4.40;;
17390;SDS011;8813;54.444;18.446;2023-12-20T12:44:02;4.82;;;4.68;;
17390;SDS011;8813;54.444;18.446;2023-12-20T12:46:29;4.50;;;4.40;;
17390;SDS011;8813;54.444;18.446;2023-12-20T12:48:57;4.78;;;4.68;;
17390;SDS011;8813;54.444;18.446;2023-12-20T12:51:25;3.90;;;3.80;;
17390;SDS011;8813;54.444;18.446;2023-12-20T12:53:52;4.55;;;4.45;;
17390;SDS011;8813;54.444;18.446;2023-12-20T12:56:19;4.88;;;4.78;;
17390;SDS011;8813;54.444;18.446;2023-12-20T12:58:47;4.57;;;4.47;;
17390;SDS011;8813;54.444;18.446;2023-12-20T13:01:14;5.57;;;5.05;;
17390;SDS011;8813;54.444;18.446;2023-12-20T13:03:41;5.97;;;5.78;;
17390;SDS011;8813;54.444;18.446;2023-12-20T13:06:08;4.80;;;4.70;;
17390;SDS011;8813;54.444;18.446;2023-12-20T13:08:37;4.90;;;4.80;;
17390;SDS011;8813;54.444;18.446;2023-12-20T13:11:04;5.45;;;5.25;;
17390;SDS011;8813;54.444;18.446;2023-12-20T13:13:31;5.13;;;5.03;;
17390;SDS011;8813;54.444;18.446;2023-12-20T13:15:58;12.38;;;6.22;;
17390;SDS011;8813;54.444;18.446;2023-12-20T13:18:26;5.45;;;5.25;;
17390;SDS011;8813;54.444;18.446;2023-12-20T13:20:53;5.10;;;5.00;;
17390;SDS011;8813;54.444;18.446;2023-12-20T13:23:20;16.38;;;5.22;;
17390;SDS011;8813;54.444;18.446;2023-12-20T13:25:49;4.53;;;4.43;;
17390;SDS011;8813;54.444;18.446;2023-12-20T13:28:16;3.72;;;3.63;;
17390;SDS011;8813;54.444;18.446;2023-12-20T13:30:43;3.65;;;3.55;;
17390;SDS011;8813;54.444;18.446;2023-12-20T13:33:10;4.35;;;4.25;;
17390;SDS011;8813;54.444;18.446;2023-12-20T13:35:37;3.50;;;3.40;;
17390;SDS011;8813;54.444;18.446;2023-12-20T13:38:05;3.05;;;2.95;;
17390;SDS011;8813;54.444;18.446;2023-12-20T13:40:33;3.33;;;3.13;;
17390;SDS011;8813;54.444;18.446;2023-12-20T13:43:01;3.65;;;3.55;;
17390;SDS011;8813;54.444;18.446;2023-12-20T13:45:29;3.20;;;3.10;;
17390;SDS011;8813;54.444;18.446;2023-12-20T13:47:56;2.60;;;2.60;;
17390;SDS011;8813;54.444;18.446;2023-12-20T13:50:26;2.40;;;2.40;;
17390;SDS011;8813;54.444;18.446;2023-12-20T13:52:53;2.50;;;2.40;;
17390;SDS011;8813;54.444;18.446;2023-12-20T13:55:20;2.75;;;2.65;;
17390;SDS011;8813;54.444;18.446;2023-12-20T13:57:50;2.90;;;2.90;;
17390;SDS011;8813;54.444;18.446;2023-12-20T14:00:19;2.20;;;2.20;;
17390;SDS011;8813;54.444;18.446;2023-12-20T14:02:46;2.30;;;2.30;;
17390;SDS011;8813;54.444;18.446;2023-12-20T14:05:14;2.40;;;2.40;;
17390;SDS011;8813;54.444;18.446;2023-12-20T14:07:42;2.58;;;2.42;;
17390;SDS011;8813;54.444;18.446;2023-12-20T14:10:16;2.10;;;2.10;;
17390;SDS011;8813;54.444;18.446;2023-12-20T14:12:43;2.30;;;2.30;;
17390;SDS011;8813;54.444;18.446;2023-12-20T14:15:10;2.50;;;2.50;;
17390;SDS011;8813;54.444;18.446;2023-12-20T14:17:40;3.72;;;3.53;;
17390;SDS011;8813;54.444;18.446;2023-12-20T14:20:08;2.75;;;2.65;;
17390;SDS011;8813;54.444;18.446;2023-12-20T14:22:37;33.88;;;7.35;;
17390;SDS011;8813;54.444;18.446;2023-12-20T14:25:10;2.85;;;2.80;;
17390;SDS011;8813;54.444;18.446;2023-12-20T14:27:38;3.22;;;3.13;;
17390;SDS011;8813;54.444;18.446;2023-12-20T14:30:06;3.47;;;3.22;;
17390;SDS011;8813;54.444;18.446;2023-12-20T14:32:34;2.80;;;2.60;;
17390;SDS011;8813;54.444;18.446;2023-12-20T14:35:05;2.83;;;2.70;;
17390;SDS011;8813;54.444;18.446;2023-12-20T14:37:33;3.80;;;3.60;;
17390;SDS011;8813;54.444;18.446;2023-12-20T14:40:03;2.40;;;2.40;;
17390;SDS011;8813;54.444;18.446;2023-12-20T14:42:30;2.72;;;2.60;;
17390;SDS011;8813;54.444;18.446;2023-12-20T14:44:58;2.95;;;2.85;;
17390;SDS011;8813;54.444;18.446;2023-12-20T14:47:25;3.90;;;3.80;;